»·PEaware :: INDIE33 KWVI-KSJC

INDIE33 :: KWVI-KSJC

FLIGHT INFORMATION

Flight Status: Arrived
Operator: Unknown
More flights by this operator :: More flights under this callsign
Pilot: Indie I. (23354)
Aircraft: BEECH AIRCRAFT T-6A TEXAN
(TEX2)
More flights by this aircraft type
Origin: KWVI Watsonville Mun
United States
Destination: KSJC Mineta San Jose Intl
United States
More flights between these airports :: More routes between these airports
Route: +WVI4 SNS BSR BSR/141/5 BSR SNS KWVI KLIDE
File this flight plan on PilotEdge
Remarks: Delay Hunter High MOA with Indie36 (self deconflict) 0+15, Delay KWVI 0+15
Altitude:
(Current/Filed)
11,000ft
Speed:
(Current/Filed)
258kts
Departed: 15-Apr-19 10:53 AM
Arrived: 15-Apr-19 11:55 AM
Distance/Time
Traveled:
27nm/1:02
Distance/Time
To Go:
Arrived

Flight Plot

Page will automatically refresh every two minutes.

Flight plan parsing failed; only flown route is shown


Map Options




Map Legend


Flown Route
Filed Route
Departure Airport
Arrival Airport
Navaid (VOR, NDB)
Fix

Horizontal Profiles

Position Reports

Time Latitude Longitude Heading Altitude Ground
Speed
15-Apr-19 10:39 36.931247 -121.792010 213 163ft 0kts
15-Apr-19 10:40 36.931247 -121.792010 213 163ft 0kts
15-Apr-19 10:41 36.931247 -121.792010 213 163ft 0kts
15-Apr-19 10:42 36.931244 -121.792012 213 163ft 0kts
15-Apr-19 10:43 36.931137 -121.791922 91 163ft 0kts
15-Apr-19 10:44 36.931137 -121.791919 91 163ft 0kts
15-Apr-19 10:45 36.931561 -121.791664 348 163ft 6kts
15-Apr-19 10:46 36.933199 -121.790998 33 163ft 3kts
15-Apr-19 10:47 36.934872 -121.789619 31 163ft 12kts
15-Apr-19 10:48 36.936758 -121.788118 30 163ft 12kts
15-Apr-19 10:49 36.938765 -121.787118 305 163ft 0kts
15-Apr-19 10:50 36.938772 -121.787130 305 163ft 0kts
15-Apr-19 10:51 36.938611 -121.788271 212 163ft 0kts
15-Apr-19 10:52 36.915148 -121.815542 225 1472ft 165kts
15-Apr-19 10:53 36.867452 -121.821784 172 4158ft 180kts
15-Apr-19 10:54 36.816623 -121.812958 170 7036ft 184kts
15-Apr-19 10:55 36.779025 -121.771891 125 9710ft 196kts
15-Apr-19 10:56 36.740431 -121.714552 131 10972ft 249kts
15-Apr-19 10:57 36.695905 -121.650382 129 11027ft 240kts
15-Apr-19 10:58 36.648990 -121.593672 169 11175ft 230kts
15-Apr-19 10:59 36.585720 -121.608620 180 10978ft 237kts
15-Apr-19 11:00 36.519848 -121.614520 181 11035ft 236kts
15-Apr-19 11:01 36.454048 -121.618876 182 11032ft 238kts
15-Apr-19 11:02 36.387750 -121.623503 185 11046ft 238kts
15-Apr-19 11:03 36.321688 -121.628822 184 11062ft 238kts
15-Apr-19 11:04 36.255550 -121.635456 177 10993ft 240kts
15-Apr-19 11:05 36.189178 -121.640575 182 11039ft 237kts
15-Apr-19 11:06 36.126619 -121.621063 156 10987ft 239kts
15-Apr-19 11:07 36.069588 -121.583764 163 11864ft 237kts
15-Apr-19 11:08 36.014507 -121.536752 154 12637ft 262kts
15-Apr-19 11:09 35.951953 -121.491434 127 13440ft 238kts
15-Apr-19 11:11 35.973656 -121.496377 2 12031ft 270kts
15-Apr-19 11:12 36.034861 -121.514515 331 12012ft 221kts
15-Apr-19 11:13 36.090931 -121.540733 334 11556ft 228kts
15-Apr-19 11:14 36.155687 -121.550472 353 11016ft 234kts
15-Apr-19 11:15 36.221236 -121.559390 354 11023ft 239kts
15-Apr-19 11:16 36.287655 -121.567301 356 11032ft 240kts
15-Apr-19 11:17 36.354832 -121.571022 354 11061ft 239kts
15-Apr-19 11:18 36.421247 -121.578505 354 9631ft 243kts
15-Apr-19 11:19 36.486871 -121.586558 355 8473ft 235kts
15-Apr-19 11:20 36.551564 -121.591332 357 7341ft 230kts
15-Apr-19 11:21 36.612768 -121.597474 357 6924ft 207kts
15-Apr-19 11:22 36.668704 -121.603746 330 6621ft 187kts
15-Apr-19 11:23 36.682658 -121.573968 150 6112ft 175kts
15-Apr-19 11:24 36.638661 -121.547658 186 5999ft 175kts
15-Apr-19 11:25 36.646822 -121.588560 322 5940ft 170kts
15-Apr-19 11:26 36.685931 -121.600287 67 5997ft 166kts
15-Apr-19 11:27 36.654769 -121.563528 154 6002ft 177kts
15-Apr-19 11:28 36.618506 -121.572580 285 5968ft 179kts
15-Apr-19 11:29 36.660309 -121.601586 327 6059ft 178kts
15-Apr-19 11:29 36.691434 -121.591647 90 5992ft 182kts
15-Apr-19 11:31 36.670534 -121.607297 296 5984ft 169kts
15-Apr-19 11:32 36.711044 -121.635546 331 5590ft 187kts
15-Apr-19 11:32 36.745122 -121.660319 331 4494ft 160kts
15-Apr-19 11:33 36.785337 -121.687732 329 3670ft 139kts
15-Apr-19 11:35 36.822738 -121.714079 331 2671ft 124kts
15-Apr-19 11:35 36.847797 -121.730478 332 2424ft 121kts
15-Apr-19 11:36 36.878383 -121.749657 335 2114ft 120kts
15-Apr-19 11:37 36.907372 -121.770491 322 1275ft 123kts
15-Apr-19 11:38 36.930119 -121.794672 19 371ft 128kts
15-Apr-19 11:39 36.962777 -121.800362 267 2535ft 185kts
15-Apr-19 11:40 36.922448 -121.792355 148 4995ft 199kts
15-Apr-19 11:41 36.910435 -121.730030 41 5061ft 246kts
15-Apr-19 11:42 36.961014 -121.673696 41 5159ft 236kts
15-Apr-19 11:43 37.011572 -121.619021 40 4973ft 243kts
15-Apr-19 11:44 37.074834 -121.622903 344 4954ft 242kts
15-Apr-19 11:45 37.125128 -121.671011 318 4963ft 204kts
15-Apr-19 11:46 37.165903 -121.713616 318 4064ft 181kts
15-Apr-19 11:47 37.201934 -121.753766 320 4026ft 167kts
15-Apr-19 11:48 37.229490 -121.783587 317 3327ft 125kts
15-Apr-19 11:49 37.254804 -121.811536 320 2686ft 118kts
15-Apr-19 11:50 37.280111 -121.839017 318 2043ft 122kts
15-Apr-19 11:51 37.305644 -121.867297 318 1407ft 121kts
15-Apr-19 11:52 37.330664 -121.894807 319 762ft 118kts
15-Apr-19 11:53 37.355393 -121.921834 318 114ft 115kts
15-Apr-19 11:54 37.366696 -121.934232 317 65ft 11kts
15-Apr-19 11:55 37.366567 -121.935432 228 65ft 0kts

Navigation Log

Ident Type
Flight plan parsing failed, navigation log unavailable